createdAt,value
2022-11-19T00:00:19.677Z,3.71
2022-11-19T00:03:22.951Z,3.70
2022-11-19T00:06:27.838Z,3.66
2022-11-19T00:09:30.667Z,3.65
2022-11-19T00:12:51.576Z,3.59
2022-11-19T00:15:54.462Z,3.59
2022-11-19T00:18:57.035Z,3.46
2022-11-19T00:21:59.861Z,3.30
2022-11-19T00:25:03.563Z,3.26
2022-11-19T00:28:09.249Z,3.23
2022-11-19T00:31:18.042Z,3.28
2022-11-19T00:34:21.269Z,3.27
2022-11-19T00:37:23.850Z,3.24
2022-11-19T00:40:26.563Z,3.21
2022-11-19T00:43:49.279Z,3.18
2022-11-19T00:46:53.056Z,3.12
2022-11-19T00:50:18.057Z,3.08
2022-11-19T00:53:25.175Z,3.03
2022-11-19T00:56:50.468Z,3.00
2022-11-19T00:59:53.487Z,2.96
2022-11-19T01:02:58.299Z,2.89
2022-11-19T01:06:01.566Z,2.71
2022-11-19T01:09:04.758Z,2.61
2022-11-19T01:12:07.567Z,2.59
2022-11-19T01:15:12.301Z,2.49
2022-11-19T01:18:16.657Z,2.40
2022-11-19T01:21:24.404Z,2.35
2022-11-19T01:24:27.784Z,2.26
2022-11-19T01:27:34.602Z,2.13
2022-11-19T01:31:12.110Z,2.06
2022-11-19T01:34:16.870Z,2.00
2022-11-19T01:37:31.058Z,1.92
2022-11-19T01:40:45.629Z,1.88
2022-11-19T01:43:50.009Z,1.86
2022-11-19T01:46:52.755Z,1.79
2022-11-19T01:49:57.811Z,1.71
2022-11-19T01:53:03.030Z,1.68
2022-11-19T01:56:09.040Z,1.58
2022-11-19T01:59:20.172Z,1.59
2022-11-19T02:02:31.177Z,1.52
2022-11-19T02:05:35.215Z,1.50
2022-11-19T02:08:46.240Z,1.51
2022-11-19T02:12:21.871Z,1.48
2022-11-19T02:15:27.257Z,1.39
2022-11-19T02:18:52.231Z,1.37
2022-11-19T02:22:29.795Z,1.31
2022-11-19T02:26:27.094Z,1.27
2022-11-19T02:29:29.540Z,1.21
2022-11-19T02:32:39.020Z,1.33
2022-11-19T02:35:52.137Z,1.20
2022-11-19T02:39:13.692Z,1.20
2022-11-19T02:42:20.366Z,1.17
2022-11-19T02:45:39.635Z,1.11
2022-11-19T02:48:50.503Z,1.13
2022-11-19T02:51:54.513Z,1.05
2022-11-19T02:54:56.925Z,1.02
2022-11-19T02:58:08.812Z,1.02
2022-11-19T03:01:34.341Z,1.02
2022-11-19T03:04:40.427Z,1.01
2022-11-19T03:07:42.922Z,1.03
2022-11-19T03:10:56.538Z,0.95
2022-11-19T03:14:41.592Z,1.02
2022-11-19T03:17:55.514Z,0.97
2022-11-19T03:21:08.106Z,0.95
2022-11-19T03:24:28.926Z,0.96
2022-11-19T03:27:46.059Z,1.02
2022-11-19T03:30:56.898Z,1.10
2022-11-19T03:34:04.142Z,1.20
2022-11-19T03:37:11.514Z,1.31
2022-11-19T03:40:19.737Z,1.40
2022-11-19T03:43:27.105Z,1.39
2022-11-19T03:46:36.195Z,1.44
2022-11-19T03:49:45.147Z,1.47
2022-11-19T03:52:52.573Z,1.47
2022-11-19T03:56:00.844Z,1.46
2022-11-19T03:59:04.566Z,1.29
2022-11-19T04:02:10.918Z,1.28
2022-11-19T04:05:16.601Z,1.21
2022-11-19T04:08:21.206Z,1.28
2022-11-19T04:11:40.818Z,1.35
2022-11-19T04:14:46.594Z,1.27
2022-11-19T04:17:50.258Z,1.30
2022-11-19T04:20:52.637Z,1.25
2022-11-19T04:23:55.587Z,1.20
2022-11-19T04:26:58.346Z,1.18
2022-11-19T04:30:05.704Z,1.09
2022-11-19T04:33:08.598Z,1.05
2022-11-19T04:36:11.673Z,1.03
2022-11-19T04:39:19.077Z,1.00
2022-11-19T04:42:42.867Z,0.92
2022-11-19T04:45:49.019Z,0.80
2022-11-19T04:49:04.782Z,0.71
2022-11-19T04:52:09.822Z,0.72
2022-11-19T04:55:14.201Z,0.74
2022-11-19T04:58:17.825Z,0.71
2022-11-19T05:01:23.224Z,0.76
2022-11-19T05:04:28.682Z,0.81
2022-11-19T05:07:34.336Z,0.79
2022-11-19T05:10:37.268Z,0.81
2022-11-19T05:13:41.946Z,0.83
2022-11-19T05:16:44.700Z,0.79
2022-11-19T05:19:50.304Z,0.75
2022-11-19T05:22:52.865Z,0.72
2022-11-19T05:25:58.266Z,0.67
2022-11-19T05:29:03.362Z,0.63
2022-11-19T05:32:09.759Z,0.68
2022-11-19T05:35:14.374Z,0.69
2022-11-19T05:38:20.990Z,0.66
2022-11-19T05:41:24.353Z,0.72
2022-11-19T05:44:27.533Z,0.78
2022-11-19T05:47:33.927Z,0.76
2022-11-19T05:50:36.897Z,0.57
2022-11-19T05:53:39.383Z,0.62
2022-11-19T05:56:45.362Z,0.66
2022-11-19T05:59:47.946Z,0.61
2022-11-19T06:02:59.386Z,0.72
2022-11-19T06:06:03.738Z,0.75
2022-11-19T06:09:06.219Z,0.76
2022-11-19T06:12:09.295Z,0.83
2022-11-19T06:15:12.581Z,0.82
2022-11-19T06:18:15.720Z,0.78
2022-11-19T06:21:18.667Z,0.78
2022-11-19T06:24:23.874Z,0.71
2022-11-19T06:27:28.611Z,0.72
2022-11-19T06:30:31.726Z,0.85
2022-11-19T06:33:38.429Z,0.98
2022-11-19T06:36:50.590Z,0.97
2022-11-19T06:39:56.346Z,0.98
2022-11-19T06:42:59.182Z,1.02
2022-11-19T06:46:01.685Z,0.89
2022-11-19T06:49:07.007Z,0.93
2022-11-19T06:52:11.414Z,1.03
2022-11-19T06:55:17.815Z,1.11
2022-11-19T06:58:20.941Z,1.25
2022-11-19T07:01:24.334Z,1.43
2022-11-19T07:04:31.899Z,1.33
2022-11-19T07:07:37.804Z,1.45
2022-11-19T07:10:42.180Z,1.56
2022-11-19T07:14:00.256Z,1.56
2022-11-19T07:17:03.587Z,1.68
2022-11-19T07:20:07.559Z,1.74
2022-11-19T07:23:11.022Z,1.79
2022-11-19T07:26:17.715Z,1.61
2022-11-19T07:29:20.504Z,1.51
2022-11-19T07:32:23.622Z,1.63
2022-11-19T07:35:28.479Z,1.53
2022-11-19T07:38:37.368Z,1.54
2022-11-19T07:41:58.368Z,1.53
2022-11-19T07:45:01.467Z,1.50
2022-11-19T07:48:07.258Z,1.54
2022-11-19T07:51:11.460Z,1.63
2022-11-19T07:54:36.192Z,1.72
2022-11-19T07:57:43.332Z,1.74
2022-11-19T08:00:54.531Z,1.90
2022-11-19T08:04:05.698Z,1.99
2022-11-19T08:07:11.747Z,2.00
2022-11-19T08:10:15.835Z,2.12
2022-11-19T08:13:18.654Z,2.17
2022-11-19T08:16:41.044Z,2.35
2022-11-19T08:19:43.630Z,2.31
2022-11-19T08:22:46.715Z,2.75
2022-11-19T08:25:56.653Z,2.81
2022-11-19T08:29:05.335Z,2.67
2022-11-19T08:32:10.079Z,2.48
2022-11-19T08:35:35.011Z,2.52
2022-11-19T08:38:38.932Z,2.57
2022-11-19T08:42:01.072Z,2.74
2022-11-19T08:45:08.326Z,2.66
2022-11-19T08:48:34.811Z,2.67
2022-11-19T08:51:37.235Z,2.70
2022-11-19T08:54:40.358Z,2.87
2022-11-19T08:57:49.359Z,2.67
2022-11-19T09:00:56.178Z,2.61
2022-11-19T09:04:01.874Z,2.55
2022-11-19T09:07:08.647Z,2.71
2022-11-19T09:10:11.678Z,2.89
2022-11-19T09:13:18.153Z,3.12
2022-11-19T09:16:20.721Z,3.36
2022-11-19T09:19:24.274Z,3.63
2022-11-19T09:22:31.554Z,4.03
2022-11-19T09:25:37.179Z,3.88
2022-11-19T09:29:03.144Z,4.00
2022-11-19T09:32:08.935Z,3.77
2022-11-19T09:35:19.874Z,3.68
2022-11-19T09:38:26.912Z,3.81
2022-11-19T09:41:48.640Z,3.88
2022-11-19T09:45:29.173Z,3.89
2022-11-19T09:48:37.525Z,4.06
2022-11-19T09:51:46.575Z,4.12
2022-11-19T09:54:54.770Z,4.43
2022-11-19T09:58:00.121Z,4.37
2022-11-19T10:01:04.775Z,4.56
2022-11-19T10:04:12.389Z,4.81
2022-11-19T10:07:47.444Z,4.45
2022-11-19T10:11:10.236Z,4.42
2022-11-19T10:15:07.396Z,4.28
2022-11-19T10:18:55.420Z,4.60
2022-11-19T10:22:04.334Z,4.26
2022-11-19T10:25:20.258Z,4.81
2022-11-19T10:28:28.256Z,4.51
2022-11-19T10:31:48.037Z,4.50
2022-11-19T10:34:54.085Z,4.23
2022-11-19T10:38:02.156Z,4.31
2022-11-19T10:41:14.665Z,4.34
2022-11-19T10:44:49.834Z,4.43
2022-11-19T10:48:24.616Z,4.42
2022-11-19T10:51:36.206Z,4.48
2022-11-19T10:54:49.998Z,4.16
2022-11-19T10:58:12.515Z,4.48
2022-11-19T11:01:22.524Z,4.76
2022-11-19T11:04:31.009Z,5.19
2022-11-19T11:07:53.135Z,5.90
2022-11-19T11:10:57.474Z,5.85
2022-11-19T11:14:19.377Z,6.13
2022-11-19T11:17:29.409Z,5.69
2022-11-19T11:20:32.674Z,6.37
2022-11-19T11:23:48.525Z,6.38
2022-11-19T11:27:20.651Z,6.19
2022-11-19T11:30:26.592Z,5.99
2022-11-19T11:33:41.332Z,5.76
2022-11-19T11:36:45.212Z,5.77
2022-11-19T11:39:52.646Z,5.63
2022-11-19T11:43:18.769Z,5.40
2022-11-19T11:46:22.000Z,5.90
2022-11-19T11:49:27.481Z,5.90
2022-11-19T11:52:38.081Z,5.40
2022-11-19T11:55:40.873Z,5.40
2022-11-19T11:58:44.101Z,5.85
2022-11-19T12:01:55.618Z,5.84
2022-11-19T12:05:22.828Z,5.99
2022-11-19T12:09:29.057Z,5.83
2022-11-19T12:12:50.850Z,5.10
2022-11-19T12:16:02.672Z,5.35
2022-11-19T12:19:18.465Z,5.40
2022-11-19T12:22:34.607Z,5.32
2022-11-19T12:26:02.681Z,5.52
2022-11-19T12:29:24.174Z,5.55
2022-11-19T12:32:44.247Z,6.07
2022-11-19T12:36:05.821Z,6.01
2022-11-19T12:39:56.235Z,6.15
2022-11-19T12:43:29.552Z,6.14
2022-11-19T12:46:56.387Z,6.26
2022-11-19T12:50:14.475Z,6.29
2022-11-19T12:53:31.380Z,6.33
2022-11-19T12:56:54.990Z,6.27
2022-11-19T13:00:23.974Z,6.31
2022-11-19T13:03:35.574Z,6.53
2022-11-19T13:06:49.350Z,6.49
2022-11-19T13:10:00.502Z,6.07
2022-11-19T13:13:08.110Z,6.57
2022-11-19T13:16:17.284Z,6.96
2022-11-19T13:19:33.399Z,7.05
2022-11-19T13:22:39.949Z,6.94
2022-11-19T13:25:58.477Z,7.18
2022-11-19T13:29:34.310Z,7.39
2022-11-19T13:32:49.372Z,7.19
2022-11-19T13:36:03.637Z,6.37
2022-11-19T13:39:19.673Z,6.71
2022-11-19T13:43:04.157Z,6.51
2022-11-19T13:46:12.002Z,6.48
2022-11-19T13:49:36.777Z,6.46
2022-11-19T13:52:44.463Z,6.50
2022-11-19T13:55:47.608Z,6.39
2022-11-19T13:58:56.766Z,6.27
2022-11-19T14:02:05.684Z,6.11
2022-11-19T14:05:27.058Z,6.18
2022-11-19T14:08:56.731Z,5.76
2022-11-19T14:12:03.542Z,5.57
2022-11-19T14:15:51.856Z,5.34
2022-11-19T14:19:19.797Z,5.26
2022-11-19T14:22:52.564Z,5.03
2022-11-19T14:26:14.431Z,4.68
2022-11-19T14:29:26.043Z,4.60
2022-11-19T14:32:43.988Z,4.48
2022-11-19T14:35:53.105Z,4.40
2022-11-19T14:39:01.841Z,4.35
2022-11-19T14:42:23.230Z,4.47
2022-11-19T14:45:28.474Z,4.47
2022-11-19T14:48:52.682Z,4.45
2022-11-19T14:51:57.690Z,4.32
2022-11-19T14:55:02.205Z,4.27
2022-11-19T14:58:19.714Z,4.33
2022-11-19T15:01:24.193Z,4.33
2022-11-19T15:04:41.204Z,4.28
2022-11-19T15:07:56.231Z,4.22
2022-11-19T15:11:01.874Z,4.16
2022-11-19T15:14:29.585Z,4.15
2022-11-19T15:17:35.988Z,4.08
2022-11-19T15:20:55.474Z,3.98
2022-11-19T15:24:21.455Z,3.89
2022-11-19T15:27:33.444Z,3.89
2022-11-19T15:31:10.684Z,3.77
2022-11-19T15:34:49.248Z,3.71
2022-11-19T15:38:29.850Z,3.54
2022-11-19T15:41:41.182Z,3.36
2022-11-19T15:44:59.041Z,3.32
2022-11-19T15:48:21.560Z,3.16
2022-11-19T15:51:24.692Z,3.10
2022-11-19T15:54:32.204Z,2.99
2022-11-19T15:57:43.815Z,2.91
2022-11-19T16:00:50.980Z,2.86
2022-11-19T16:03:56.703Z,2.86
2022-11-19T16:06:59.175Z,2.74
2022-11-19T16:10:22.279Z,2.70
2022-11-19T16:13:45.416Z,2.73
2022-11-19T16:17:10.729Z,2.61
2022-11-19T16:20:13.199Z,2.65
2022-11-19T16:23:25.077Z,2.62
2022-11-19T16:26:28.196Z,2.58
2022-11-19T16:29:36.742Z,2.62
2022-11-19T16:32:39.559Z,2.54
2022-11-19T16:35:42.780Z,2.65
2022-11-19T16:38:48.012Z,2.53
2022-11-19T16:45:58.159Z,2.63
2022-11-19T16:49:12.995Z,2.54
2022-11-19T16:52:37.346Z,2.46
2022-11-19T16:56:01.119Z,2.48
2022-11-19T16:59:05.177Z,2.44
2022-11-19T17:02:15.843Z,2.33
2022-11-19T17:05:22.572Z,2.27
2022-11-19T17:08:29.824Z,2.25
2022-11-19T17:11:57.137Z,2.24
2022-11-19T17:15:02.554Z,2.29
2022-11-19T17:18:33.051Z,2.16
2022-11-19T17:21:39.185Z,2.19
2022-11-19T17:24:43.891Z,2.08
2022-11-19T17:28:00.415Z,2.11
2022-11-19T17:31:07.228Z,2.02
2022-11-19T17:34:30.250Z,1.98
2022-11-19T17:37:32.677Z,1.98
2022-11-19T17:40:40.567Z,1.95
2022-11-19T17:44:03.775Z,1.91
2022-11-19T17:47:24.506Z,1.94
2022-11-19T17:50:29.590Z,1.80
2022-11-19T17:53:32.638Z,1.89
2022-11-19T17:56:34.985Z,1.91
2022-11-19T17:59:40.394Z,1.80
2022-11-19T18:02:49.077Z,1.87
2022-11-19T18:05:55.129Z,1.94
2022-11-19T18:08:57.561Z,1.93
2022-11-19T18:12:00.274Z,1.76
2022-11-19T18:15:07.772Z,1.87
2022-11-19T18:18:35.012Z,1.80
2022-11-19T18:21:40.153Z,1.79
2022-11-19T18:24:43.160Z,1.84
2022-11-19T18:27:46.118Z,1.87
2022-11-19T18:30:49.032Z,1.78
2022-11-19T18:33:53.657Z,1.84
2022-11-19T18:36:57.108Z,1.83
2022-11-19T18:40:03.813Z,1.75
2022-11-19T18:43:25.339Z,1.73
2022-11-19T18:46:30.602Z,1.62
2022-11-19T18:49:34.523Z,1.72
2022-11-19T18:52:40.660Z,1.70
2022-11-19T18:55:45.944Z,1.64
2022-11-19T18:58:50.815Z,1.68
2022-11-19T19:01:55.963Z,1.55
2022-11-19T19:04:58.543Z,1.56
2022-11-19T19:08:01.456Z,1.55
2022-11-19T19:11:25.375Z,1.50
2022-11-19T19:14:28.612Z,1.48
2022-11-19T19:17:31.287Z,1.55
2022-11-19T19:20:36.594Z,1.54
2022-11-19T19:23:44.068Z,1.58
2022-11-19T19:26:49.439Z,1.56
2022-11-19T19:29:54.556Z,1.45
2022-11-19T19:32:57.968Z,1.49
2022-11-19T19:36:03.898Z,1.39
2022-11-19T19:39:07.323Z,1.58
2022-11-19T19:42:10.364Z,1.46
2022-11-19T19:45:13.434Z,1.39
2022-11-19T19:48:15.945Z,1.40
2022-11-19T19:51:20.812Z,1.42
2022-11-19T19:54:26.443Z,1.49
2022-11-19T19:57:30.347Z,1.37
2022-11-19T20:00:33.005Z,1.42
2022-11-19T20:03:38.988Z,1.34
2022-11-19T20:06:45.872Z,1.44
2022-11-19T20:09:48.599Z,1.50
2022-11-19T20:13:10.205Z,1.44
2022-11-19T20:16:18.162Z,1.62
2022-11-19T20:19:21.472Z,1.58
2022-11-19T20:22:28.652Z,1.48
2022-11-19T20:25:33.895Z,1.42
2022-11-19T20:28:39.949Z,1.37
2022-11-19T20:31:50.082Z,1.43
2022-11-19T20:34:53.480Z,1.46
2022-11-19T20:38:00.783Z,1.38
2022-11-19T20:41:32.758Z,1.36
2022-11-19T20:44:35.530Z,1.40
2022-11-19T20:47:40.362Z,1.46
2022-11-19T20:50:42.704Z,1.29
2022-11-19T20:53:47.702Z,1.27
2022-11-19T20:56:51.352Z,1.37
2022-11-19T20:59:54.100Z,1.35
2022-11-19T21:02:58.795Z,1.30
2022-11-19T21:06:03.702Z,1.34
2022-11-19T21:09:06.987Z,1.28
2022-11-19T21:12:14.065Z,1.28
2022-11-19T21:15:19.010Z,1.26
2022-11-19T21:18:36.996Z,1.30
2022-11-19T21:21:39.896Z,1.27
2022-11-19T21:24:46.410Z,1.22
2022-11-19T21:27:50.677Z,1.29
2022-11-19T21:30:53.646Z,1.20
2022-11-19T21:33:59.438Z,1.16
2022-11-19T21:37:02.849Z,1.26
2022-11-19T21:40:06.300Z,1.14
2022-11-19T21:43:09.471Z,1.08
2022-11-19T21:46:14.301Z,1.04
2022-11-19T21:49:17.518Z,1.11
2022-11-19T21:52:20.441Z,1.04
2022-11-19T21:55:24.130Z,1.08
2022-11-19T21:58:26.770Z,1.06
2022-11-19T22:01:30.103Z,1.11
2022-11-19T22:04:41.670Z,1.02
2022-11-19T22:07:46.748Z,1.14
2022-11-19T22:10:52.449Z,1.00
2022-11-19T22:14:09.425Z,0.99
2022-11-19T22:17:20.115Z,1.11
2022-11-19T22:20:24.690Z,1.13
2022-11-19T22:23:29.015Z,0.95
2022-11-19T22:26:33.287Z,1.06
2022-11-19T22:29:38.476Z,1.00
2022-11-19T22:32:46.860Z,0.97
2022-11-19T22:35:52.630Z,0.92
2022-11-19T22:38:59.231Z,0.99
2022-11-19T22:42:02.235Z,0.93
2022-11-19T22:45:05.534Z,1.05
2022-11-19T22:48:09.752Z,0.99
2022-11-19T22:51:23.512Z,1.04
2022-11-19T22:54:36.078Z,0.90
2022-11-19T22:57:43.624Z,1.00
2022-11-19T23:00:49.772Z,1.02
2022-11-19T23:03:53.229Z,1.04
2022-11-19T23:06:56.316Z,1.04
2022-11-19T23:09:58.798Z,1.08
2022-11-19T23:13:21.551Z,1.08
2022-11-19T23:16:27.045Z,1.14
2022-11-19T23:19:30.120Z,1.10
2022-11-19T23:22:34.457Z,1.13
2022-11-19T23:25:38.471Z,1.13
2022-11-19T23:28:50.394Z,1.03
2022-11-19T23:31:53.729Z,1.18
2022-11-19T23:34:56.552Z,1.08
2022-11-19T23:38:00.545Z,1.06
2022-11-19T23:41:06.508Z,1.08
2022-11-19T23:44:11.519Z,1.11
2022-11-19T23:47:14.237Z,1.06
2022-11-19T23:50:18.023Z,1.13
2022-11-19T23:53:21.141Z,1.15
2022-11-19T23:56:25.083Z,1.14
2022-11-19T23:59:30.007Z,1.20
